Archival Weather

Norman Y Mineta San Jose Intl

San Jose, California (KSJC)

Report from: Wednesday, January 31, 2024 4:53 PM PST
Current time: Monday, June 24, 2024 2:55 AM PDT

Current weather – Weather history – Daily summaries
Weather forecast

Present weatherLight rain
Temperature13.9°C (57.0°F)
Dew point8.9°C (48.0°F)
Winds 24 kts (12.3 m/s, 27.6 mph) South-Southeast (150°)
Peak wind 29 kts (14.9 m/s, 33.4 mph) South-Southeast (150°) at 00:42
Visibility7 mi. (11.3 km)
Clouds Few clouds 6,000 ft. (1,829 m)
Ceiling: Broken clouds 8,000 ft. (2,438 m)
Overcast 10,000 ft. (3,048 m)
Altimeter29.60 in.Hg (1002 mB)
Precipitiation0.02 in. (1 mm)
Relative humidity72 %
Density altitude404 ft. (123 m)
Sea-level pressure100.2 kPa (1002 mB, 29.60 in.Hg)
Remarks Automated weather observing station with precipitation discriminator
Pressure falling rapidly
Flight conditions Visual Meteorological Conditions
Raw dataKSJC 010053Z 15024KT 7SM -RA FEW060 BKN080 OVC100 14/09 A2960 RMK AO2 PK WND 15029/0042 PRESFR SLP023 P0002 T01390089
An error has occurred. This application may no longer respond until reloaded. Reload 🗙